sensor_id;sensor_type;location;lat;lon;timestamp;temperature;humidity
18794;DHT22;29610;49.022;12.114;2022-07-29T00:01:42;20.70;70.40
18794;DHT22;29610;49.022;12.114;2022-07-29T00:04:14;20.70;70.30
18794;DHT22;29610;49.022;12.114;2022-07-29T00:06:47;20.70;70.10
18794;DHT22;29610;49.022;12.114;2022-07-29T00:09:24;20.70;70.20
18794;DHT22;29610;49.022;12.114;2022-07-29T00:12:04;20.70;69.80
18794;DHT22;29610;49.022;12.114;2022-07-29T00:14:54;20.80;69.80
18794;DHT22;29610;49.022;12.114;2022-07-29T00:17:29;20.80;69.40
18794;DHT22;29610;49.022;12.114;2022-07-29T00:20:05;20.90;69.60
18794;DHT22;29610;49.022;12.114;2022-07-29T00:22:37;20.90;69.10
18794;DHT22;29610;49.022;12.114;2022-07-29T00:25:16;20.90;69.10
18794;DHT22;29610;49.022;12.114;2022-07-29T00:27:53;21.00;69.40
18794;DHT22;29610;49.022;12.114;2022-07-29T00:30:23;20.90;69.60
18794;DHT22;29610;49.022;12.114;2022-07-29T00:32:57;21.00;69.20
18794;DHT22;29610;49.022;12.114;2022-07-29T00:35:36;20.90;69.10
18794;DHT22;29610;49.022;12.114;2022-07-29T00:38:18;20.90;69.30
18794;DHT22;29610;49.022;12.114;2022-07-29T00:40:48;20.90;70.20
18794;DHT22;29610;49.022;12.114;2022-07-29T00:43:18;20.90;69.30
18794;DHT22;29610;49.022;12.114;2022-07-29T00:45:46;20.90;69.50
18794;DHT22;29610;49.022;12.114;2022-07-29T00:48:15;21.00;70.00
18794;DHT22;29610;49.022;12.114;2022-07-29T00:50:49;21.00;70.10
18794;DHT22;29610;49.022;12.114;2022-07-29T00:53:19;20.90;70.10
18794;DHT22;29610;49.022;12.114;2022-07-29T00:55:49;20.80;70.40
18794;DHT22;29610;49.022;12.114;2022-07-29T00:58:18;20.70;70.80
18794;DHT22;29610;49.022;12.114;2022-07-29T01:00:48;20.70;70.90
18794;DHT22;29610;49.022;12.114;2022-07-29T01:03:21;20.60;70.60
18794;DHT22;29610;49.022;12.114;2022-07-29T01:05:53;20.60;71.00
18794;DHT22;29610;49.022;12.114;2022-07-29T01:08:24;20.60;71.30
18794;DHT22;29610;49.022;12.114;2022-07-29T01:10:57;20.50;71.10
18794;DHT22;29610;49.022;12.114;2022-07-29T01:13:27;20.50;71.50
18794;DHT22;29610;49.022;12.114;2022-07-29T01:16:03;20.30;71.50
18794;DHT22;29610;49.022;12.114;2022-07-29T01:18:46;20.20;71.90
18794;DHT22;29610;49.022;12.114;2022-07-29T01:21:39;20.20;72.30
18794;DHT22;29610;49.022;12.114;2022-07-29T01:24:51;20.10;72.80
18794;DHT22;29610;49.022;12.114;2022-07-29T01:27:41;20.20;72.80
18794;DHT22;29610;49.022;12.114;2022-07-29T01:30:22;20.10;73.40
18794;DHT22;29610;49.022;12.114;2022-07-29T01:32:56;20.00;73.80
18794;DHT22;29610;49.022;12.114;2022-07-29T01:35:35;19.90;74.20
18794;DHT22;29610;49.022;12.114;2022-07-29T01:38:10;19.90;74.40
18794;DHT22;29610;49.022;12.114;2022-07-29T01:40:46;19.80;75.10
18794;DHT22;29610;49.022;12.114;2022-07-29T01:43:21;19.80;75.30
18794;DHT22;29610;49.022;12.114;2022-07-29T01:46:00;19.70;75.40
18794;DHT22;29610;49.022;12.114;2022-07-29T01:48:43;19.70;75.70
18794;DHT22;29610;49.022;12.114;2022-07-29T01:51:19;19.70;76.40
18794;DHT22;29610;49.022;12.114;2022-07-29T01:53:57;19.70;75.70
18794;DHT22;29610;49.022;12.114;2022-07-29T01:56:33;19.70;76.20
18794;DHT22;29610;49.022;12.114;2022-07-29T01:59:06;19.60;76.70
18794;DHT22;29610;49.022;12.114;2022-07-29T02:01:40;19.50;77.00
18794;DHT22;29610;49.022;12.114;2022-07-29T02:04:12;19.50;77.00
18794;DHT22;29610;49.022;12.114;2022-07-29T02:06:59;19.50;77.10
18794;DHT22;29610;49.022;12.114;2022-07-29T02:09:35;19.50;77.10
18794;DHT22;29610;49.022;12.114;2022-07-29T02:12:07;19.50;77.60
18794;DHT22;29610;49.022;12.114;2022-07-29T02:14:49;19.30;78.20
18794;DHT22;29610;49.022;12.114;2022-07-29T02:17:41;19.30;78.70
18794;DHT22;29610;49.022;12.114;2022-07-29T02:21:13;19.10;78.90
18794;DHT22;29610;49.022;12.114;2022-07-29T02:24:15;19.20;78.80
18794;DHT22;29610;49.022;12.114;2022-07-29T02:26:59;19.20;79.10
18794;DHT22;29610;49.022;12.114;2022-07-29T02:29:30;19.10;78.70
18794;DHT22;29610;49.022;12.114;2022-07-29T02:32:01;19.10;78.90
18794;DHT22;29610;49.022;12.114;2022-07-29T02:34:33;19.00;80.10
18794;DHT22;29610;49.022;12.114;2022-07-29T02:37:08;19.00;81.20
18794;DHT22;29610;49.022;12.114;2022-07-29T02:39:44;19.00;82.30
18794;DHT22;29610;49.022;12.114;2022-07-29T02:42:27;18.90;82.80
18794;DHT22;29610;49.022;12.114;2022-07-29T02:45:13;18.80;82.90
18794;DHT22;29610;49.022;12.114;2022-07-29T02:47:43;18.80;83.10
18794;DHT22;29610;49.022;12.114;2022-07-29T02:50:20;18.80;82.50
18794;DHT22;29610;49.022;12.114;2022-07-29T02:53:00;18.80;81.60
18794;DHT22;29610;49.022;12.114;2022-07-29T02:55:36;18.90;80.70
18794;DHT22;29610;49.022;12.114;2022-07-29T02:58:14;19.00;80.20
18794;DHT22;29610;49.022;12.114;2022-07-29T03:00:50;18.90;80.10
18794;DHT22;29610;49.022;12.114;2022-07-29T03:03:21;19.00;79.60
18794;DHT22;29610;49.022;12.114;2022-07-29T03:05:53;19.00;79.20
18794;DHT22;29610;49.022;12.114;2022-07-29T03:08:23;19.10;78.90
18794;DHT22;29610;49.022;12.114;2022-07-29T03:10:53;19.10;78.40
18794;DHT22;29610;49.022;12.114;2022-07-29T03:13:24;19.10;78.20
18794;DHT22;29610;49.022;12.114;2022-07-29T03:15:53;19.10;78.20
18794;DHT22;29610;49.022;12.114;2022-07-29T03:18:24;19.10;78.20
18794;DHT22;29610;49.022;12.114;2022-07-29T03:20:55;19.10;77.60
18794;DHT22;29610;49.022;12.114;2022-07-29T03:23:24;19.10;77.60
18794;DHT22;29610;49.022;12.114;2022-07-29T03:26:01;19.10;77.90
18794;DHT22;29610;49.022;12.114;2022-07-29T03:28:37;19.10;77.20
18794;DHT22;29610;49.022;12.114;2022-07-29T03:31:11;19.10;77.30
18794;DHT22;29610;49.022;12.114;2022-07-29T03:33:40;19.10;77.20
18794;DHT22;29610;49.022;12.114;2022-07-29T03:36:16;19.10;77.20
18794;DHT22;29610;49.022;12.114;2022-07-29T03:38:45;19.10;77.20
18794;DHT22;29610;49.022;12.114;2022-07-29T03:41:16;19.10;77.20
18794;DHT22;29610;49.022;12.114;2022-07-29T03:43:49;19.20;77.00
18794;DHT22;29610;49.022;12.114;2022-07-29T03:46:21;19.20;76.50
18794;DHT22;29610;49.022;12.114;2022-07-29T03:48:56;19.20;76.80
18794;DHT22;29610;49.022;12.114;2022-07-29T03:51:29;19.10;77.00
18794;DHT22;29610;49.022;12.114;2022-07-29T03:53:59;19.10;76.70
18794;DHT22;29610;49.022;12.114;2022-07-29T03:56:39;19.10;76.70
18794;DHT22;29610;49.022;12.114;2022-07-29T03:59:14;19.20;77.40
18794;DHT22;29610;49.022;12.114;2022-07-29T04:01:46;19.20;76.60
18794;DHT22;29610;49.022;12.114;2022-07-29T04:04:17;19.20;77.40
18794;DHT22;29610;49.022;12.114;2022-07-29T04:06:47;19.20;76.40
18794;DHT22;29610;49.022;12.114;2022-07-29T04:09:16;19.20;76.60
18794;DHT22;29610;49.022;12.114;2022-07-29T04:11:45;19.20;77.00
18794;DHT22;29610;49.022;12.114;2022-07-29T04:14:30;19.20;76.70
18794;DHT22;29610;49.022;12.114;2022-07-29T04:16:59;19.20;76.40
18794;DHT22;29610;49.022;12.114;2022-07-29T04:19:28;19.30;76.50
18794;DHT22;29610;49.022;12.114;2022-07-29T04:21:58;19.40;76.50
18794;DHT22;29610;49.022;12.114;2022-07-29T04:24:27;19.40;76.50
18794;DHT22;29610;49.022;12.114;2022-07-29T04:26:56;19.50;77.50
18794;DHT22;29610;49.022;12.114;2022-07-29T04:29:24;19.50;76.40
18794;DHT22;29610;49.022;12.114;2022-07-29T04:31:53;19.60;76.30
18794;DHT22;29610;49.022;12.114;2022-07-29T04:34:21;19.60;76.30
18794;DHT22;29610;49.022;12.114;2022-07-29T04:36:54;19.50;76.30
18794;DHT22;29610;49.022;12.114;2022-07-29T04:39:25;19.50;76.70
18794;DHT22;29610;49.022;12.114;2022-07-29T04:41:56;19.60;77.00
18794;DHT22;29610;49.022;12.114;2022-07-29T04:44:25;19.70;76.30
18794;DHT22;29610;49.022;12.114;2022-07-29T04:46:56;19.70;75.50
18794;DHT22;29610;49.022;12.114;2022-07-29T04:49:25;19.70;75.50
18794;DHT22;29610;49.022;12.114;2022-07-29T04:51:53;19.70;76.20
18794;DHT22;29610;49.022;12.114;2022-07-29T04:54:23;19.80;76.00
18794;DHT22;29610;49.022;12.114;2022-07-29T04:56:52;19.80;76.40
18794;DHT22;29610;49.022;12.114;2022-07-29T04:59:20;19.70;76.80
18794;DHT22;29610;49.022;12.114;2022-07-29T05:01:49;19.60;77.00
18794;DHT22;29610;49.022;12.114;2022-07-29T05:04:18;19.40;77.30
18794;DHT22;29610;49.022;12.114;2022-07-29T05:06:47;19.40;77.40
18794;DHT22;29610;49.022;12.114;2022-07-29T05:09:15;18.50;76.20
18794;DHT22;29610;49.022;12.114;2022-07-29T05:11:45;19.50;77.40
18794;DHT22;29610;49.022;12.114;2022-07-29T05:14:14;19.50;77.70
18794;DHT22;29610;49.022;12.114;2022-07-29T05:16:44;19.50;77.00
18794;DHT22;29610;49.022;12.114;2022-07-29T05:19:12;19.60;77.40
18794;DHT22;29610;49.022;12.114;2022-07-29T05:21:41;19.70;76.40
18794;DHT22;29610;49.022;12.114;2022-07-29T05:24:10;19.70;75.90
18794;DHT22;29610;49.022;12.114;2022-07-29T05:26:39;19.70;76.00
18794;DHT22;29610;49.022;12.114;2022-07-29T05:29:09;19.80;75.70
18794;DHT22;29610;49.022;12.114;2022-07-29T05:31:58;19.80;76.00
18794;DHT22;29610;49.022;12.114;2022-07-29T05:34:26;19.70;75.80
18794;DHT22;29610;49.022;12.114;2022-07-29T05:36:55;19.60;76.10
18794;DHT22;29610;49.022;12.114;2022-07-29T05:39:23;19.70;76.60
18794;DHT22;29610;49.022;12.114;2022-07-29T05:42:12;19.70;76.30
18794;DHT22;29610;49.022;12.114;2022-07-29T05:44:42;19.80;76.30
18794;DHT22;29610;49.022;12.114;2022-07-29T05:47:10;19.70;76.60
18794;DHT22;29610;49.022;12.114;2022-07-29T05:49:39;19.70;77.30
18794;DHT22;29610;49.022;12.114;2022-07-29T05:52:08;19.70;77.50
18794;DHT22;29610;49.022;12.114;2022-07-29T05:54:36;19.80;77.50
18794;DHT22;29610;49.022;12.114;2022-07-29T05:57:05;19.80;75.90
18794;DHT22;29610;49.022;12.114;2022-07-29T05:59:35;19.80;77.00
18794;DHT22;29610;49.022;12.114;2022-07-29T06:02:06;19.90;76.60
18794;DHT22;29610;49.022;12.114;2022-07-29T06:04:34;20.00;75.70
18794;DHT22;29610;49.022;12.114;2022-07-29T06:07:03;20.00;76.20
18794;DHT22;29610;49.022;12.114;2022-07-29T06:09:32;20.00;76.10
18794;DHT22;29610;49.022;12.114;2022-07-29T06:12:02;20.00;75.80
18794;DHT22;29610;49.022;12.114;2022-07-29T06:14:31;20.10;75.30
18794;DHT22;29610;49.022;12.114;2022-07-29T06:17:00;20.30;74.90
18794;DHT22;29610;49.022;12.114;2022-07-29T06:19:30;20.40;74.40
18794;DHT22;29610;49.022;12.114;2022-07-29T06:21:59;20.60;74.20
18794;DHT22;29610;49.022;12.114;2022-07-29T06:24:27;20.60;74.10
18794;DHT22;29610;49.022;12.114;2022-07-29T06:26:56;20.70;73.80
18794;DHT22;29610;49.022;12.114;2022-07-29T06:29:28;20.80;73.10
18794;DHT22;29610;49.022;12.114;2022-07-29T06:31:56;20.80;73.70
18794;DHT22;29610;49.022;12.114;2022-07-29T06:34:24;20.80;72.40
18794;DHT22;29610;49.022;12.114;2022-07-29T06:36:54;20.90;72.40
18794;DHT22;29610;49.022;12.114;2022-07-29T06:39:23;20.90;73.10
18794;DHT22;29610;49.022;12.114;2022-07-29T06:41:51;20.80;72.60
18794;DHT22;29610;49.022;12.114;2022-07-29T06:44:24;20.60;73.30
18794;DHT22;29610;49.022;12.114;2022-07-29T06:46:52;20.80;73.20
18794;DHT22;29610;49.022;12.114;2022-07-29T06:49:21;20.70;74.20
18794;DHT22;29610;49.022;12.114;2022-07-29T06:51:51;20.70;73.20
18794;DHT22;29610;49.022;12.114;2022-07-29T06:54:21;21.00;73.80
18794;DHT22;29610;49.022;12.114;2022-07-29T06:56:49;21.30;72.70
18794;DHT22;29610;49.022;12.114;2022-07-29T06:59:18;21.40;72.80
18794;DHT22;29610;49.022;12.114;2022-07-29T07:01:58;21.80;73.30
18794;DHT22;29610;49.022;12.114;2022-07-29T07:04:26;22.30;70.60
18794;DHT22;29610;49.022;12.114;2022-07-29T07:06:55;22.70;70.60
18794;DHT22;29610;49.022;12.114;2022-07-29T07:09:25;23.10;68.70
18794;DHT22;29610;49.022;12.114;2022-07-29T07:12:07;23.40;67.90
18794;DHT22;29610;49.022;12.114;2022-07-29T07:14:35;23.70;67.40
18794;DHT22;29610;49.022;12.114;2022-07-29T07:17:04;23.90;67.00
18794;DHT22;29610;49.022;12.114;2022-07-29T07:19:34;24.20;66.00
18794;DHT22;29610;49.022;12.114;2022-07-29T07:22:02;24.30;65.80
18794;DHT22;29610;49.022;12.114;2022-07-29T07:24:32;24.20;66.10
18794;DHT22;29610;49.022;12.114;2022-07-29T07:27:01;24.10;66.60
18794;DHT22;29610;49.022;12.114;2022-07-29T07:29:29;23.80;66.80
18794;DHT22;29610;49.022;12.114;2022-07-29T07:31:58;24.20;66.90
18794;DHT22;29610;49.022;12.114;2022-07-29T07:34:27;24.40;67.40
18794;DHT22;29610;49.022;12.114;2022-07-29T07:36:56;24.60;66.80
18794;DHT22;29610;49.022;12.114;2022-07-29T07:39:25;25.10;67.50
18794;DHT22;29610;49.022;12.114;2022-07-29T07:41:55;25.40;64.90
18794;DHT22;29610;49.022;12.114;2022-07-29T07:44:23;25.50;64.50
18794;DHT22;29610;49.022;12.114;2022-07-29T07:46:52;25.40;66.30
18794;DHT22;29610;49.022;12.114;2022-07-29T07:49:21;26.00;65.50
18794;DHT22;29610;49.022;12.114;2022-07-29T07:51:50;26.50;65.30
18794;DHT22;29610;49.022;12.114;2022-07-29T07:54:19;26.50;65.00
18794;DHT22;29610;49.022;12.114;2022-07-29T07:56:48;26.40;64.20
18794;DHT22;29610;49.022;12.114;2022-07-29T07:59:20;26.40;63.40
18794;DHT22;29610;49.022;12.114;2022-07-29T08:01:49;26.40;64.80
18794;DHT22;29610;49.022;12.114;2022-07-29T08:04:22;26.90;64.50
18794;DHT22;29610;49.022;12.114;2022-07-29T08:06:55;27.20;62.30
18794;DHT22;29610;49.022;12.114;2022-07-29T08:09:26;27.20;62.00
18794;DHT22;29610;49.022;12.114;2022-07-29T08:11:59;27.00;64.10
18794;DHT22;29610;49.022;12.114;2022-07-29T08:14:31;27.20;63.00
18794;DHT22;29610;49.022;12.114;2022-07-29T08:17:03;27.30;62.50
18794;DHT22;29610;49.022;12.114;2022-07-29T08:19:31;28.00;60.80
18794;DHT22;29610;49.022;12.114;2022-07-29T08:22:00;27.90;60.60
18794;DHT22;29610;49.022;12.114;2022-07-29T08:24:29;27.70;61.00
18794;DHT22;29610;49.022;12.114;2022-07-29T08:27:19;27.70;61.70
18794;DHT22;29610;49.022;12.114;2022-07-29T08:30:10;27.60;62.00
18794;DHT22;29610;49.022;12.114;2022-07-29T08:32:39;28.10;61.30
18794;DHT22;29610;49.022;12.114;2022-07-29T08:35:21;28.00;62.10
18794;DHT22;29610;49.022;12.114;2022-07-29T08:37:50;28.70;60.90
18794;DHT22;29610;49.022;12.114;2022-07-29T08:40:20;28.30;59.50
18794;DHT22;29610;49.022;12.114;2022-07-29T08:42:59;28.10;61.90
18794;DHT22;29610;49.022;12.114;2022-07-29T08:45:42;28.10;61.70
18794;DHT22;29610;49.022;12.114;2022-07-29T08:48:16;28.40;61.70
18794;DHT22;29610;49.022;12.114;2022-07-29T08:50:47;29.20;61.20
18794;DHT22;29610;49.022;12.114;2022-07-29T08:53:17;29.70;58.90
18794;DHT22;29610;49.022;12.114;2022-07-29T08:55:48;30.40;58.70
18794;DHT22;29610;49.022;12.114;2022-07-29T08:58:18;31.10;57.50
18794;DHT22;29610;49.022;12.114;2022-07-29T09:00:53;31.60;56.20
18794;DHT22;29610;49.022;12.114;2022-07-29T09:03:29;31.70;55.00
18794;DHT22;29610;49.022;12.114;2022-07-29T09:05:59;31.90;55.30
18794;DHT22;29610;49.022;12.114;2022-07-29T09:08:35;31.20;55.40
18794;DHT22;29610;49.022;12.114;2022-07-29T09:11:05;31.20;55.90
18794;DHT22;29610;49.022;12.114;2022-07-29T09:13:34;31.40;55.70
18794;DHT22;29610;49.022;12.114;2022-07-29T09:16:11;31.80;55.40
18794;DHT22;29610;49.022;12.114;2022-07-29T09:18:59;32.00;54.90
18794;DHT22;29610;49.022;12.114;2022-07-29T09:21:40;32.00;54.90
18794;DHT22;29610;49.022;12.114;2022-07-29T09:24:37;32.00;54.40
18794;DHT22;29610;49.022;12.114;2022-07-29T09:27:19;32.00;54.00
18794;DHT22;29610;49.022;12.114;2022-07-29T09:29:57;31.90;54.60
18794;DHT22;29610;49.022;12.114;2022-07-29T09:32:28;32.10;53.80
18794;DHT22;29610;49.022;12.114;2022-07-29T09:35:17;32.40;52.70
18794;DHT22;29610;49.022;12.114;2022-07-29T09:37:48;32.30;52.70
18794;DHT22;29610;49.022;12.114;2022-07-29T09:40:17;32.40;51.50
18794;DHT22;29610;49.022;12.114;2022-07-29T09:42:47;32.50;51.60
18794;DHT22;29610;49.022;12.114;2022-07-29T09:45:30;32.80;51.60
18794;DHT22;29610;49.022;12.114;2022-07-29T09:48:13;32.60;51.90
18794;DHT22;29610;49.022;12.114;2022-07-29T09:50:44;32.40;51.40
18794;DHT22;29610;49.022;12.114;2022-07-29T09:53:30;32.30;52.70
18794;DHT22;29610;49.022;12.114;2022-07-29T09:55:59;32.60;51.90
18794;DHT22;29610;49.022;12.114;2022-07-29T09:58:28;33.30;51.00
18794;DHT22;29610;49.022;12.114;2022-07-29T10:01:00;33.50;50.20
18794;DHT22;29610;49.022;12.114;2022-07-29T10:03:51;33.80;50.70
18794;DHT22;29610;49.022;12.114;2022-07-29T10:06:20;33.80;50.50
18794;DHT22;29610;49.022;12.114;2022-07-29T10:08:49;34.20;49.80
18794;DHT22;29610;49.022;12.114;2022-07-29T10:11:18;34.40;48.00
18794;DHT22;29610;49.022;12.114;2022-07-29T10:13:48;34.70;47.90
18794;DHT22;29610;49.022;12.114;2022-07-29T10:16:17;34.40;46.90
18794;DHT22;29610;49.022;12.114;2022-07-29T10:18:45;34.10;49.40
18794;DHT22;29610;49.022;12.114;2022-07-29T10:21:18;34.50;49.10
18794;DHT22;29610;49.022;12.114;2022-07-29T10:24:01;34.40;48.90
18794;DHT22;29610;49.022;12.114;2022-07-29T10:26:32;33.50;50.30
18794;DHT22;29610;49.022;12.114;2022-07-29T10:29:01;33.70;50.90
18794;DHT22;29610;49.022;12.114;2022-07-29T10:31:34;34.10;49.10
18794;DHT22;29610;49.022;12.114;2022-07-29T10:34:16;34.20;49.80
18794;DHT22;29610;49.022;12.114;2022-07-29T10:37:07;34.70;48.90
18794;DHT22;29610;49.022;12.114;2022-07-29T10:39:54;35.20;47.70
18794;DHT22;29610;49.022;12.114;2022-07-29T10:42:50;34.70;48.00
18794;DHT22;29610;49.022;12.114;2022-07-29T10:45:22;34.30;46.80
18794;DHT22;29610;49.022;12.114;2022-07-29T10:48:03;34.10;48.90
18794;DHT22;29610;49.022;12.114;2022-07-29T10:50:52;33.80;49.30
18794;DHT22;29610;49.022;12.114;2022-07-29T10:53:24;34.00;50.30
18794;DHT22;29610;49.022;12.114;2022-07-29T10:56:28;34.20;47.90
18794;DHT22;29610;49.022;12.114;2022-07-29T10:59:24;33.80;48.80
18794;DHT22;29610;49.022;12.114;2022-07-29T11:02:02;32.80;49.40
18794;DHT22;29610;49.022;12.114;2022-07-29T11:05:12;32.60;50.20
18794;DHT22;29610;49.022;12.114;2022-07-29T11:08:19;33.90;49.50
18794;DHT22;29610;49.022;12.114;2022-07-29T11:11:30;35.00;49.30
18794;DHT22;29610;49.022;12.114;2022-07-29T11:14:00;36.00;46.20
18794;DHT22;29610;49.022;12.114;2022-07-29T11:17:01;35.90;46.00
18794;DHT22;29610;49.022;12.114;2022-07-29T11:19:34;34.80;47.00
18794;DHT22;29610;49.022;12.114;2022-07-29T11:22:09;33.90;48.30
18794;DHT22;29610;49.022;12.114;2022-07-29T11:24:44;34.40;49.60
18794;DHT22;29610;49.022;12.114;2022-07-29T11:27:17;34.70;47.90
18794;DHT22;29610;49.022;12.114;2022-07-29T11:29:54;35.10;47.60
18794;DHT22;29610;49.022;12.114;2022-07-29T11:32:44;35.50;47.60
18794;DHT22;29610;49.022;12.114;2022-07-29T11:35:17;35.70;46.90
18794;DHT22;29610;49.022;12.114;2022-07-29T11:38:25;35.90;48.10
18794;DHT22;29610;49.022;12.114;2022-07-29T11:41:21;35.30;47.20
18794;DHT22;29610;49.022;12.114;2022-07-29T11:43:53;34.40;47.90
18794;DHT22;29610;49.022;12.114;2022-07-29T11:46:42;33.70;48.90
18794;DHT22;29610;49.022;12.114;2022-07-29T11:49:13;34.20;49.90
18794;DHT22;29610;49.022;12.114;2022-07-29T11:52:01;34.50;49.30
18794;DHT22;29610;49.022;12.114;2022-07-29T11:54:32;34.70;48.30
18794;DHT22;29610;49.022;12.114;2022-07-29T11:57:24;34.80;48.90
18794;DHT22;29610;49.022;12.114;2022-07-29T12:00:05;34.70;48.70
18794;DHT22;29610;49.022;12.114;2022-07-29T12:02:39;34.70;48.80
18794;DHT22;29610;49.022;12.114;2022-07-29T12:05:15;34.00;49.60
18794;DHT22;29610;49.022;12.114;2022-07-29T12:08:07;33.40;50.40
18794;DHT22;29610;49.022;12.114;2022-07-29T12:10:41;33.20;50.50
18794;DHT22;29610;49.022;12.114;2022-07-29T12:13:13;33.40;50.20
18794;DHT22;29610;49.022;12.114;2022-07-29T12:15:50;33.70;49.70
18794;DHT22;29610;49.022;12.114;2022-07-29T12:18:20;33.70;50.20
18794;DHT22;29610;49.022;12.114;2022-07-29T12:20:56;33.70;50.40
18794;DHT22;29610;49.022;12.114;2022-07-29T12:23:30;33.80;49.40
18794;DHT22;29610;49.022;12.114;2022-07-29T12:26:03;33.40;50.20
18794;DHT22;29610;49.022;12.114;2022-07-29T12:28:49;33.70;50.10
18794;DHT22;29610;49.022;12.114;2022-07-29T12:31:23;33.60;49.90
18794;DHT22;29610;49.022;12.114;2022-07-29T12:34:12;33.70;49.90
18794;DHT22;29610;49.022;12.114;2022-07-29T12:36:42;33.60;49.30
18794;DHT22;29610;49.022;12.114;2022-07-29T12:39:10;33.50;50.40
18794;DHT22;29610;49.022;12.114;2022-07-29T12:41:44;33.20;51.10
18794;DHT22;29610;49.022;12.114;2022-07-29T12:44:15;33.20;52.00
18794;DHT22;29610;49.022;12.114;2022-07-29T12:46:44;33.40;51.70
18794;DHT22;29610;49.022;12.114;2022-07-29T12:49:21;33.30;51.40
18794;DHT22;29610;49.022;12.114;2022-07-29T12:51:51;33.20;51.10
18794;DHT22;29610;49.022;12.114;2022-07-29T12:54:20;33.00;51.50
18794;DHT22;29610;49.022;12.114;2022-07-29T12:56:58;32.80;50.90
18794;DHT22;29610;49.022;12.114;2022-07-29T12:59:28;32.70;52.50
18794;DHT22;29610;49.022;12.114;2022-07-29T13:01:57;32.40;51.90
18794;DHT22;29610;49.022;12.114;2022-07-29T13:04:28;32.10;52.60
18794;DHT22;29610;49.022;12.114;2022-07-29T13:06:59;31.70;53.10
18794;DHT22;29610;49.022;12.114;2022-07-29T13:09:39;31.60;54.60
18794;DHT22;29610;49.022;12.114;2022-07-29T13:12:09;31.80;52.40
18794;DHT22;29610;49.022;12.114;2022-07-29T13:14:42;31.80;54.10
18794;DHT22;29610;49.022;12.114;2022-07-29T13:17:13;32.30;52.90
18794;DHT22;29610;49.022;12.114;2022-07-29T13:19:45;33.00;51.50
18794;DHT22;29610;49.022;12.114;2022-07-29T13:22:17;32.90;49.90
18794;DHT22;29610;49.022;12.114;2022-07-29T13:24:49;32.70;50.80
18794;DHT22;29610;49.022;12.114;2022-07-29T13:27:20;33.00;52.40
18794;DHT22;29610;49.022;12.114;2022-07-29T13:29:51;33.20;51.80
18794;DHT22;29610;49.022;12.114;2022-07-29T13:32:23;33.60;50.30
18794;DHT22;29610;49.022;12.114;2022-07-29T13:34:55;33.90;49.60
18794;DHT22;29610;49.022;12.114;2022-07-29T13:37:25;33.80;50.20
18794;DHT22;29610;49.022;12.114;2022-07-29T13:39:57;34.00;49.80
18794;DHT22;29610;49.022;12.114;2022-07-29T13:42:26;33.90;50.50
18794;DHT22;29610;49.022;12.114;2022-07-29T13:44:56;34.10;50.30
18794;DHT22;29610;49.022;12.114;2022-07-29T13:47:25;34.00;50.80
18794;DHT22;29610;49.022;12.114;2022-07-29T13:49:59;34.60;51.10
18794;DHT22;29610;49.022;12.114;2022-07-29T13:52:28;35.00;48.30
18794;DHT22;29610;49.022;12.114;2022-07-29T13:54:57;35.10;47.90
18794;DHT22;29610;49.022;12.114;2022-07-29T13:57:26;35.00;47.40
18794;DHT22;29610;49.022;12.114;2022-07-29T13:59:56;35.40;47.70
18794;DHT22;29610;49.022;12.114;2022-07-29T14:02:25;35.20;47.90
18794;DHT22;29610;49.022;12.114;2022-07-29T14:04:53;35.10;47.50
18794;DHT22;29610;49.022;12.114;2022-07-29T14:07:22;35.10;48.40
18794;DHT22;29610;49.022;12.114;2022-07-29T14:09:51;35.00;48.10
18794;DHT22;29610;49.022;12.114;2022-07-29T14:12:19;34.70;47.90
18794;DHT22;29610;49.022;12.114;2022-07-29T14:14:48;35.00;48.30
18794;DHT22;29610;49.022;12.114;2022-07-29T14:17:20;34.80;49.10
18794;DHT22;29610;49.022;12.114;2022-07-29T14:19:48;34.50;47.50
18794;DHT22;29610;49.022;12.114;2022-07-29T14:22:17;34.90;47.90
18794;DHT22;29610;49.022;12.114;2022-07-29T14:24:48;34.90;47.00
18794;DHT22;29610;49.022;12.114;2022-07-29T14:27:17;35.00;47.30
18794;DHT22;29610;49.022;12.114;2022-07-29T14:30:04;34.90;47.70
18794;DHT22;29610;49.022;12.114;2022-07-29T14:32:35;34.70;46.20
18794;DHT22;29610;49.022;12.114;2022-07-29T14:35:05;34.20;47.60
18794;DHT22;29610;49.022;12.114;2022-07-29T14:37:34;33.60;47.20
18794;DHT22;29610;49.022;12.114;2022-07-29T14:40:07;33.10;47.50
18794;DHT22;29610;49.022;12.114;2022-07-29T14:42:37;32.80;48.80
18794;DHT22;29610;49.022;12.114;2022-07-29T14:45:08;32.50;49.30
18794;DHT22;29610;49.022;12.114;2022-07-29T14:47:38;32.30;51.40
18794;DHT22;29610;49.022;12.114;2022-07-29T14:50:08;32.20;51.50
18794;DHT22;29610;49.022;12.114;2022-07-29T14:52:37;32.10;50.60
18794;DHT22;29610;49.022;12.114;2022-07-29T14:55:07;32.00;51.70
18794;DHT22;29610;49.022;12.114;2022-07-29T14:57:46;31.90;51.40
18794;DHT22;29610;49.022;12.114;2022-07-29T15:00:17;31.80;51.10
18794;DHT22;29610;49.022;12.114;2022-07-29T15:02:47;31.60;51.40
18794;DHT22;29610;49.022;12.114;2022-07-29T15:05:28;31.40;51.50
18794;DHT22;29610;49.022;12.114;2022-07-29T15:07:57;31.30;51.80
18794;DHT22;29610;49.022;12.114;2022-07-29T15:10:26;31.00;52.10
18794;DHT22;29610;49.022;12.114;2022-07-29T15:12:56;30.80;53.60
18794;DHT22;29610;49.022;12.114;2022-07-29T15:15:24;30.80;53.70
18794;DHT22;29610;49.022;12.114;2022-07-29T15:17:54;30.70;55.40
18794;DHT22;29610;49.022;12.114;2022-07-29T15:20:23;30.50;56.40
18794;DHT22;29610;49.022;12.114;2022-07-29T15:22:54;30.20;57.40
18794;DHT22;29610;49.022;12.114;2022-07-29T15:25:22;30.20;57.80
18794;DHT22;29610;49.022;12.114;2022-07-29T15:27:53;30.00;58.30
18794;DHT22;29610;49.022;12.114;2022-07-29T15:30:28;29.30;58.20
18794;DHT22;29610;49.022;12.114;2022-07-29T15:33:02;28.50;59.70
18794;DHT22;29610;49.022;12.114;2022-07-29T15:35:31;28.00;60.00
18794;DHT22;29610;49.022;12.114;2022-07-29T15:38:07;27.60;61.20
18794;DHT22;29610;49.022;12.114;2022-07-29T15:40:37;27.60;61.70
18794;DHT22;29610;49.022;12.114;2022-07-29T15:43:07;27.30;62.20
18794;DHT22;29610;49.022;12.114;2022-07-29T15:45:36;27.30;62.50
18794;DHT22;29610;49.022;12.114;2022-07-29T15:48:09;27.10;63.30
18794;DHT22;29610;49.022;12.114;2022-07-29T15:50:42;27.10;62.90
18794;DHT22;29610;49.022;12.114;2022-07-29T15:53:13;27.20;63.40
18794;DHT22;29610;49.022;12.114;2022-07-29T15:55:43;27.20;63.80
18794;DHT22;29610;49.022;12.114;2022-07-29T15:58:11;27.20;65.10